Terminal Aerodrome Forecast
Issued by NWS

Home | Current Version | Previous Version | Text Only | Print | Product List | Glossary On
Versions: 1 2 3 4 5 6 7 8 9 10 11 12 13 14 15 16
000
FTUS42 KGSP 251720
TAFGMU
TAF
KGMU 251720Z 2518/2618 14003KT P6SM SCT040
      TEMPO 2518/2522 VRB03KT
     FM261300 33003KT P6SM FEW040
     FM261500 04004KT P6SM FEW040=

USA.gov is the U.S. government's official web portal to all federal, state and local government web resources and services.